createdAt,value
2023-03-18T00:00:22.609Z,46.68
2023-03-18T00:02:55.159Z,46.65
2023-03-18T00:05:27.090Z,46.77
2023-03-18T00:07:59.315Z,46.93
2023-03-18T00:10:32.457Z,46.88
2023-03-18T00:13:07.396Z,46.73
2023-03-18T00:15:39.401Z,46.85
2023-03-18T00:18:11.516Z,46.86
2023-03-18T00:20:45.405Z,46.74
2023-03-18T00:23:18.189Z,47.03
2023-03-18T00:25:51.899Z,47.16
2023-03-18T00:28:24.993Z,47.66
2023-03-18T00:30:58.951Z,47.40
2023-03-18T00:33:31.811Z,47.64
2023-03-18T00:36:04.444Z,47.68
2023-03-18T00:38:37.214Z,47.69
2023-03-18T00:41:12.405Z,47.72
2023-03-18T00:43:47.079Z,47.93
2023-03-18T00:46:22.305Z,48.25
2023-03-18T00:48:57.024Z,48.35
2023-03-18T00:51:31.605Z,48.54
2023-03-18T00:54:08.081Z,48.51
2023-03-18T00:56:41.515Z,48.59
2023-03-18T00:59:13.466Z,48.81
2023-03-18T01:01:45.810Z,48.66
2023-03-18T01:04:19.343Z,48.65
2023-03-18T01:06:52.778Z,48.94
2023-03-18T01:09:25.115Z,48.76
2023-03-18T01:11:57.334Z,48.97
2023-03-18T01:14:30.037Z,49.06
2023-03-18T01:17:02.344Z,49.57
2023-03-18T01:19:34.217Z,49.61
2023-03-18T01:22:07.597Z,49.43
2023-03-18T01:24:41.316Z,49.34
2023-03-18T01:27:14.435Z,49.51
2023-03-18T01:29:47.725Z,49.61
2023-03-18T01:32:22.287Z,49.67
2023-03-18T01:34:54.182Z,50.01
2023-03-18T01:37:26.195Z,50.08
2023-03-18T01:40:01.053Z,50.08
2023-03-18T01:42:33.042Z,49.89
2023-03-18T01:45:25.035Z,50.18
2023-03-18T01:47:59.007Z,50.00
2023-03-18T01:50:34.255Z,49.84
2023-03-18T01:53:09.401Z,49.57
2023-03-18T01:55:42.970Z,49.63
2023-03-18T01:58:24.672Z,49.50
2023-03-18T02:01:02.234Z,49.18
2023-03-18T02:03:36.857Z,49.29
2023-03-18T02:06:10.207Z,49.26
2023-03-18T02:08:42.207Z,49.44
2023-03-18T02:11:14.574Z,49.50
2023-03-18T02:13:48.384Z,49.74
2023-03-18T02:16:27.522Z,49.79
2023-03-18T02:19:08.130Z,49.97
2023-03-18T02:21:58.301Z,50.06
2023-03-18T02:24:34.730Z,50.18
2023-03-18T02:27:23.064Z,50.46
2023-03-18T02:29:58.161Z,50.52
2023-03-18T02:32:32.668Z,50.62
2023-03-18T02:35:09.409Z,50.75
2023-03-18T02:37:42.293Z,51.08
2023-03-18T02:40:22.265Z,51.54
2023-03-18T02:42:55.095Z,51.57
2023-03-18T02:45:33.429Z,51.67
2023-03-18T02:48:09.535Z,51.80
2023-03-18T02:50:42.455Z,52.15
2023-03-18T02:53:15.328Z,52.22
2023-03-18T02:55:47.744Z,52.22
2023-03-18T02:58:19.817Z,52.31
2023-03-18T03:00:53.104Z,52.15
2023-03-18T03:03:26.774Z,52.35
2023-03-18T03:05:58.907Z,52.65
2023-03-18T03:08:31.021Z,52.89
2023-03-18T03:11:03.624Z,53.00
2023-03-18T03:13:37.705Z,53.27
2023-03-18T03:16:10.997Z,53.20
2023-03-18T03:18:43.704Z,53.15
2023-03-18T03:21:17.082Z,53.21
2023-03-18T03:23:49.472Z,53.17
2023-03-18T03:26:22.122Z,53.13
2023-03-18T03:28:54.111Z,53.24
2023-03-18T03:31:27.543Z,53.26
2023-03-18T03:33:59.974Z,53.35
2023-03-18T03:36:32.106Z,53.23
2023-03-18T03:39:04.395Z,53.32
2023-03-18T03:41:37.960Z,53.47
2023-03-18T03:44:09.847Z,53.56
2023-03-18T03:46:43.147Z,53.67
2023-03-18T03:49:15.647Z,53.39
2023-03-18T03:51:47.532Z,53.33
2023-03-18T03:54:20.072Z,53.42
2023-03-18T03:56:53.233Z,53.47
2023-03-18T03:59:26.130Z,53.40
2023-03-18T04:02:05.992Z,53.09
2023-03-18T04:04:38.433Z,53.09
2023-03-18T04:07:12.144Z,52.97
2023-03-18T04:09:44.181Z,52.61
2023-03-18T04:12:18.234Z,52.73
2023-03-18T04:14:51.995Z,52.27
2023-03-18T04:17:24.842Z,52.35
2023-03-18T04:19:57.217Z,52.66
2023-03-18T04:22:30.795Z,52.41
2023-03-18T04:25:04.190Z,52.43
2023-03-18T04:27:36.287Z,52.03
2023-03-18T04:30:11.434Z,51.88
2023-03-18T04:32:45.042Z,51.88
2023-03-18T04:35:17.733Z,51.65
2023-03-18T04:37:50.450Z,51.76
2023-03-18T04:40:22.858Z,51.54
2023-03-18T04:42:54.743Z,51.56
2023-03-18T04:45:29.711Z,51.32
2023-03-18T04:48:04.322Z,50.84
2023-03-18T04:50:38.384Z,50.64
2023-03-18T04:53:11.316Z,50.10
2023-03-18T04:55:44.247Z,50.09
2023-03-18T04:58:16.663Z,49.68
2023-03-18T05:00:50.777Z,49.33
2023-03-18T05:03:24.613Z,48.89
2023-03-18T05:05:57.218Z,48.94
2023-03-18T05:08:31.095Z,48.51
2023-03-18T05:11:04.678Z,47.99
2023-03-18T05:13:37.594Z,45.70
2023-03-18T05:16:11.348Z,43.04
2023-03-18T05:18:44.788Z,41.38
2023-03-18T05:21:16.893Z,39.81
2023-03-18T05:23:49.102Z,39.31
2023-03-18T05:26:21.226Z,38.92
2023-03-18T05:28:54.213Z,37.54
2023-03-18T05:31:37.215Z,37.32
2023-03-18T05:34:09.571Z,37.25
2023-03-18T05:36:42.793Z,37.37
2023-03-18T05:39:14.841Z,37.28
2023-03-18T05:41:46.822Z,36.28
2023-03-18T05:44:20.658Z,34.85
2023-03-18T05:46:53.586Z,33.65
2023-03-18T05:49:27.605Z,32.72
2023-03-18T05:52:01.444Z,32.82
2023-03-18T05:54:35.277Z,32.64
2023-03-18T05:57:09.198Z,32.63
2023-03-18T05:59:41.173Z,33.24
2023-03-18T06:02:14.194Z,34.18
2023-03-18T06:04:46.333Z,35.38
2023-03-18T06:07:18.264Z,35.93
2023-03-18T06:09:50.533Z,36.58
2023-03-18T06:12:24.017Z,36.43
2023-03-18T06:14:56.484Z,36.16
2023-03-18T06:17:30.221Z,34.76
2023-03-18T06:20:02.327Z,33.58
2023-03-18T06:22:34.411Z,32.62
2023-03-18T06:25:08.337Z,31.87
2023-03-18T06:27:42.662Z,32.01
2023-03-18T06:30:16.444Z,31.06
2023-03-18T06:32:48.839Z,30.23
2023-03-18T06:35:21.295Z,30.12
2023-03-18T06:37:54.691Z,28.84
2023-03-18T06:40:27.534Z,27.75
2023-03-18T06:43:00.596Z,26.21
2023-03-18T06:45:37.737Z,25.22
2023-03-18T06:48:11.988Z,24.39
2023-03-18T06:50:45.766Z,22.52
2023-03-18T06:53:20.701Z,25.55
2023-03-18T06:55:54.139Z,21.22
2023-03-18T06:58:28.008Z,20.42
2023-03-18T07:01:05.072Z,20.86
2023-03-18T07:03:39.024Z,22.08
2023-03-18T07:06:11.343Z,22.36
2023-03-18T07:08:44.957Z,22.90
2023-03-18T07:11:17.101Z,23.23
2023-03-18T07:13:49.697Z,24.62
2023-03-18T07:16:24.527Z,25.21
2023-03-18T07:18:58.436Z,26.80
2023-03-18T07:21:31.112Z,27.16
2023-03-18T07:24:04.185Z,27.97
2023-03-18T07:26:37.655Z,28.58
2023-03-18T07:29:10.694Z,29.03
2023-03-18T07:31:43.293Z,30.32
2023-03-18T07:34:17.930Z,30.28
2023-03-18T07:36:50.484Z,29.99
2023-03-18T07:39:23.262Z,29.35
2023-03-18T07:41:55.252Z,29.69
2023-03-18T07:44:29.480Z,29.90
2023-03-18T07:47:01.793Z,29.89
2023-03-18T07:49:33.880Z,30.01
2023-03-18T07:52:05.982Z,30.24
2023-03-18T07:54:38.457Z,29.67
2023-03-18T07:57:11.169Z,30.91
2023-03-18T07:59:43.291Z,30.00
2023-03-18T08:02:16.809Z,29.67
2023-03-18T08:04:49.655Z,28.62
2023-03-18T08:07:23.129Z,28.18
2023-03-18T08:09:55.344Z,27.20
2023-03-18T08:12:33.366Z,27.43
2023-03-18T08:15:01.528Z,27.46
2023-03-18T08:17:33.906Z,27.74
2023-03-18T08:20:07.254Z,26.78
2023-03-18T08:22:39.286Z,25.33
2023-03-18T08:25:12.302Z,25.75
2023-03-18T08:27:44.542Z,25.55
2023-03-18T08:30:16.840Z,25.29
2023-03-18T08:32:49.388Z,24.90
2023-03-18T08:35:22.032Z,25.32
2023-03-18T08:37:54.855Z,25.28
2023-03-18T08:40:27.942Z,25.46
2023-03-18T08:43:00.496Z,26.37
2023-03-18T08:45:33.551Z,26.85
2023-03-18T08:48:06.385Z,26.75
2023-03-18T08:50:39.161Z,26.79
2023-03-18T08:53:11.723Z,26.54
2023-03-18T08:55:44.736Z,26.75
2023-03-18T08:58:17.642Z,26.01
2023-03-18T09:00:50.622Z,26.48
2023-03-18T09:03:24.414Z,27.01
2023-03-18T09:05:57.002Z,25.78
2023-03-18T09:08:31.159Z,26.32
2023-03-18T09:11:03.618Z,25.70
2023-03-18T09:13:38.987Z,25.64
2023-03-18T09:16:10.974Z,25.33
2023-03-18T09:18:45.250Z,25.62
2023-03-18T09:21:17.411Z,25.49
2023-03-18T09:23:50.583Z,25.36
2023-03-18T09:26:23.044Z,24.65
2023-03-18T09:28:55.230Z,24.11
2023-03-18T09:31:27.334Z,24.36
2023-03-18T09:34:00.608Z,24.43
2023-03-18T09:36:32.739Z,24.51
2023-03-18T09:39:06.357Z,23.24
2023-03-18T09:41:47.676Z,22.24
2023-03-18T09:44:37.055Z,23.20
2023-03-18T09:47:32.986Z,23.25
2023-03-18T09:50:08.368Z,22.94
2023-03-18T09:52:43.239Z,23.77
2023-03-18T09:55:18.194Z,24.15
2023-03-18T09:57:53.181Z,23.73
2023-03-18T10:00:31.068Z,23.91
2023-03-18T10:03:09.419Z,23.73
2023-03-18T10:05:59.121Z,23.50
2023-03-18T10:08:43.282Z,23.38
2023-03-18T10:11:33.307Z,23.79
2023-03-18T10:14:11.422Z,23.96
2023-03-18T10:16:51.892Z,23.00
2023-03-18T10:19:25.243Z,24.40
2023-03-18T10:22:09.702Z,24.09
2023-03-18T10:24:53.641Z,24.87
2023-03-18T10:27:38.389Z,24.75
2023-03-18T10:30:37.912Z,24.81
2023-03-18T10:33:30.783Z,24.51
2023-03-18T10:36:08.489Z,25.37
2023-03-18T10:38:46.356Z,25.72
2023-03-18T10:41:23.484Z,24.51
2023-03-18T10:43:57.914Z,24.19
2023-03-18T10:46:29.528Z,24.12
2023-03-18T10:49:10.535Z,25.93
2023-03-18T10:51:57.129Z,23.87
2023-03-18T10:54:52.963Z,23.73
2023-03-18T10:57:26.091Z,23.84
2023-03-18T10:59:59.213Z,23.52
2023-03-18T11:02:35.703Z,24.01
2023-03-18T11:05:26.198Z,24.76
2023-03-18T11:08:11.959Z,24.48
2023-03-18T11:10:48.562Z,23.55
2023-03-18T11:13:23.952Z,23.52
2023-03-18T11:15:59.141Z,24.22
2023-03-18T11:18:33.272Z,23.66
2023-03-18T11:21:08.887Z,23.71
2023-03-18T11:23:48.807Z,24.05
2023-03-18T11:26:25.143Z,24.28
2023-03-18T11:29:00.168Z,24.23
2023-03-18T11:31:32.624Z,24.74
2023-03-18T11:34:07.705Z,23.99
2023-03-18T11:36:39.773Z,25.01
2023-03-18T11:39:14.742Z,24.06
2023-03-18T11:41:49.662Z,23.86
2023-03-18T11:44:27.479Z,24.80
2023-03-18T11:47:08.793Z,24.46
2023-03-18T11:49:43.526Z,24.17
2023-03-18T11:52:42.278Z,24.36
2023-03-18T11:55:23.861Z,24.01
2023-03-18T11:57:59.150Z,25.02
2023-03-18T12:00:40.142Z,24.99
2023-03-18T12:03:36.884Z,24.23
2023-03-18T12:06:23.223Z,23.97
2023-03-18T12:09:14.452Z,24.83
2023-03-18T12:12:09.083Z,24.96
2023-03-18T12:14:49.976Z,25.58
2023-03-18T12:17:34.202Z,24.75
2023-03-18T12:20:34.863Z,24.67
2023-03-18T12:23:15.957Z,23.73
2023-03-18T12:25:53.528Z,24.60
2023-03-18T12:28:41.780Z,23.92
2023-03-18T12:31:42.001Z,23.63
2023-03-18T12:34:22.643Z,23.28
2023-03-18T12:37:00.596Z,24.20
2023-03-18T12:40:01.400Z,23.50
2023-03-18T12:42:39.181Z,23.52
2023-03-18T12:45:17.378Z,22.05
2023-03-18T12:47:55.412Z,19.51
2023-03-18T12:50:31.873Z,16.37
2023-03-18T12:53:26.125Z,14.36
2023-03-18T12:56:04.089Z,13.07
2023-03-18T12:58:42.195Z,11.55
2023-03-18T13:01:20.233Z,11.18
2023-03-18T13:03:55.301Z,10.40
2023-03-18T13:06:44.919Z,9.28
2023-03-18T13:09:36.196Z,8.89
2023-03-18T13:12:11.794Z,8.56
2023-03-18T13:14:56.495Z,7.93
2023-03-18T13:17:34.312Z,7.94
2023-03-18T13:20:18.304Z,7.24
2023-03-18T13:23:11.597Z,7.35
2023-03-18T13:26:08.846Z,6.90
2023-03-18T13:29:01.793Z,6.79
2023-03-18T13:31:45.367Z,6.83
2023-03-18T13:34:20.239Z,6.39
2023-03-18T13:37:17.793Z,6.78
2023-03-18T13:40:05.815Z,6.89
2023-03-18T13:42:40.157Z,6.66
2023-03-18T13:45:24.397Z,6.84
2023-03-18T13:48:02.882Z,6.63
2023-03-18T13:50:46.808Z,6.78
2023-03-18T13:53:22.178Z,6.91
2023-03-18T13:56:00.342Z,7.22
2023-03-18T13:58:37.965Z,7.18
2023-03-18T14:01:16.420Z,7.28
2023-03-18T14:03:51.368Z,7.06
2023-03-18T14:06:41.764Z,7.43
2023-03-18T14:09:25.700Z,7.58
2023-03-18T14:12:06.602Z,7.97
2023-03-18T14:14:42.000Z,8.56
2023-03-18T14:17:25.784Z,9.38
2023-03-18T14:19:58.499Z,10.49
2023-03-18T14:22:37.346Z,12.04
2023-03-18T14:25:21.215Z,12.97
2023-03-18T14:28:02.936Z,14.92
2023-03-18T14:30:38.077Z,16.05
2023-03-18T14:33:25.176Z,17.29
2023-03-18T14:36:10.304Z,17.98
2023-03-18T14:38:46.670Z,18.30
2023-03-18T14:41:21.556Z,18.65
2023-03-18T14:44:11.383Z,19.23
2023-03-18T14:46:46.777Z,19.99
2023-03-18T14:49:36.663Z,20.38
2023-03-18T14:52:17.926Z,20.96
2023-03-18T14:54:53.193Z,20.86
2023-03-18T14:57:28.266Z,21.47
2023-03-18T15:00:01.908Z,21.99
2023-03-18T15:02:40.221Z,22.44
2023-03-18T15:05:18.077Z,22.39
2023-03-18T15:07:53.610Z,23.26
2023-03-18T15:10:28.267Z,21.87
2023-03-18T15:13:07.782Z,21.66
2023-03-18T15:15:42.129Z,21.57
2023-03-18T15:18:20.883Z,22.08
2023-03-18T15:21:02.155Z,22.10
2023-03-18T15:23:37.921Z,21.95
2023-03-18T15:26:24.630Z,22.48
2023-03-18T15:29:00.296Z,21.95
2023-03-18T15:31:44.302Z,22.99
2023-03-18T15:34:25.349Z,22.52
2023-03-18T15:37:01.093Z,22.19
2023-03-18T15:39:40.074Z,22.39
2023-03-18T15:42:21.757Z,22.32
2023-03-18T15:44:59.877Z,21.93
2023-03-18T15:47:33.925Z,22.39
2023-03-18T15:50:28.162Z,22.66
2023-03-18T15:53:17.722Z,22.62
2023-03-18T15:55:52.962Z,22.50
2023-03-18T15:58:28.150Z,22.79
2023-03-18T16:01:00.496Z,22.80
2023-03-18T16:03:35.110Z,23.11
2023-03-18T16:06:07.647Z,22.76
2023-03-18T16:08:39.887Z,23.57
2023-03-18T16:11:14.812Z,23.62
2023-03-18T16:13:47.246Z,23.50
2023-03-18T16:16:28.669Z,23.53
2023-03-18T16:19:01.855Z,23.46
2023-03-18T16:21:34.069Z,23.52
2023-03-18T16:24:08.849Z,24.38
2023-03-18T16:26:41.454Z,24.51
2023-03-18T16:29:18.986Z,24.57
2023-03-18T16:31:51.532Z,24.56
2023-03-18T16:34:24.144Z,24.48
2023-03-18T16:36:56.638Z,24.98
2023-03-18T16:39:32.786Z,24.97
2023-03-18T16:42:06.767Z,24.72
2023-03-18T16:44:39.272Z,25.78
2023-03-18T16:47:26.668Z,25.59
2023-03-18T16:49:59.663Z,25.88
2023-03-18T16:52:33.688Z,26.53
2023-03-18T16:55:06.369Z,26.43
2023-03-18T16:57:38.549Z,26.52
2023-03-18T17:00:21.337Z,26.74
2023-03-18T17:02:53.813Z,27.55
2023-03-18T17:05:26.353Z,27.54
2023-03-18T17:07:59.063Z,27.09
2023-03-18T17:10:31.687Z,27.25
2023-03-18T17:13:06.740Z,26.85
2023-03-18T17:15:40.095Z,27.17
2023-03-18T17:18:15.033Z,27.31
2023-03-18T17:20:48.638Z,27.46
2023-03-18T17:23:25.480Z,28.42
2023-03-18T17:26:03.075Z,28.43
2023-03-18T17:28:38.373Z,28.65
2023-03-18T17:31:12.590Z,28.25
2023-03-18T17:33:44.155Z,28.75
2023-03-18T17:36:15.861Z,27.54
2023-03-18T17:38:47.832Z,28.75
2023-03-18T17:41:21.857Z,29.08
2023-03-18T17:43:53.757Z,29.10
2023-03-18T17:46:26.668Z,29.40
2023-03-18T17:48:59.294Z,29.84
2023-03-18T17:51:32.967Z,29.73
2023-03-18T17:54:08.422Z,29.81
2023-03-18T17:56:40.748Z,30.29
2023-03-18T17:59:17.884Z,30.55
2023-03-18T18:01:52.628Z,31.01
2023-03-18T18:04:26.249Z,31.51
2023-03-18T18:06:59.293Z,31.20
2023-03-18T18:09:31.182Z,31.76
2023-03-18T18:12:05.217Z,32.71
2023-03-18T18:14:38.493Z,32.88
2023-03-18T18:17:15.399Z,33.19
2023-03-18T18:19:47.837Z,33.99
2023-03-18T18:22:26.206Z,34.23
2023-03-18T18:24:58.498Z,34.06
2023-03-18T18:27:30.600Z,34.46
2023-03-18T18:30:02.553Z,34.45
2023-03-18T18:32:34.383Z,34.92
2023-03-18T18:35:06.796Z,35.35
2023-03-18T18:37:39.211Z,35.70
2023-03-18T18:40:13.678Z,35.88
2023-03-18T18:42:45.115Z,36.18
2023-03-18T18:45:21.720Z,33.61
2023-03-18T18:47:53.558Z,35.80
2023-03-18T18:50:28.658Z,36.23
2023-03-18T18:53:01.216Z,36.67
2023-03-18T18:55:33.613Z,36.73
2023-03-18T18:58:05.769Z,36.81
2023-03-18T19:00:39.116Z,37.22
2023-03-18T19:03:14.179Z,37.14
2023-03-18T19:05:47.940Z,37.96
2023-03-18T19:08:28.972Z,37.72
2023-03-18T19:11:03.611Z,37.88
2023-03-18T19:13:39.105Z,38.21
2023-03-18T19:16:20.427Z,38.15
2023-03-18T19:18:52.407Z,38.42
2023-03-18T19:21:24.477Z,38.65
2023-03-18T19:23:58.392Z,38.81
2023-03-18T19:26:30.419Z,38.87
2023-03-18T19:29:03.222Z,39.27
2023-03-18T19:31:35.871Z,39.58
2023-03-18T19:34:10.782Z,39.74
2023-03-18T19:36:43.474Z,40.03
2023-03-18T19:39:18.089Z,39.79
2023-03-18T19:41:51.471Z,40.19
2023-03-18T19:44:26.357Z,40.79
2023-03-18T19:46:59.487Z,40.96
2023-03-18T19:49:36.043Z,40.74
2023-03-18T19:52:14.544Z,40.46
2023-03-18T19:54:47.411Z,40.67
2023-03-18T19:57:28.281Z,40.58
2023-03-18T20:00:03.395Z,40.45
2023-03-18T20:02:36.555Z,41.06
2023-03-18T20:05:16.987Z,40.90
2023-03-18T20:07:50.645Z,40.56
2023-03-18T20:10:22.680Z,40.63
2023-03-18T20:12:54.612Z,40.36
2023-03-18T20:15:28.929Z,40.23
2023-03-18T20:18:01.070Z,39.78
2023-03-18T20:20:33.768Z,38.39
2023-03-18T20:23:08.938Z,39.03
2023-03-18T20:25:44.258Z,38.81
2023-03-18T20:28:19.073Z,39.51
2023-03-18T20:30:52.734Z,39.30
2023-03-18T20:33:24.803Z,39.57
2023-03-18T20:35:57.118Z,39.37
2023-03-18T20:38:34.970Z,39.76
2023-03-18T20:41:12.411Z,40.12
2023-03-18T20:43:44.719Z,39.88
2023-03-18T20:46:17.485Z,40.29
2023-03-18T20:48:49.950Z,39.72
2023-03-18T20:51:24.201Z,40.16
2023-03-18T20:53:56.313Z,39.69
2023-03-18T20:56:29.765Z,39.22
2023-03-18T20:59:03.215Z,39.28
2023-03-18T21:01:35.148Z,39.53
2023-03-18T21:04:07.809Z,39.49
2023-03-18T21:06:40.038Z,39.14
2023-03-18T21:09:13.959Z,38.85
2023-03-18T21:11:46.333Z,38.59
2023-03-18T21:14:18.453Z,38.70
2023-03-18T21:16:51.924Z,38.63
2023-03-18T21:19:24.218Z,38.61
2023-03-18T21:21:56.208Z,38.65
2023-03-18T21:24:29.031Z,38.60
2023-03-18T21:27:05.211Z,38.71
2023-03-18T21:29:35.181Z,38.66
2023-03-18T21:32:07.501Z,39.00
2023-03-18T21:34:39.366Z,38.70
2023-03-18T21:37:17.065Z,38.86
2023-03-18T21:39:49.348Z,38.62
2023-03-18T21:42:26.657Z,38.95
2023-03-18T21:44:58.637Z,38.57
2023-03-18T21:47:30.958Z,38.66
2023-03-18T21:50:02.949Z,38.55
2023-03-18T21:52:38.688Z,38.23
2023-03-18T21:55:13.316Z,38.39
2023-03-18T21:57:48.601Z,38.50
2023-03-18T22:00:20.545Z,38.51
2023-03-18T22:02:52.725Z,38.72
2023-03-18T22:05:25.912Z,39.13
2023-03-18T22:07:57.941Z,39.01
2023-03-18T22:10:29.811Z,39.62
2023-03-18T22:13:01.634Z,40.05
2023-03-18T22:15:39.720Z,40.17
2023-03-18T22:18:11.994Z,39.86
2023-03-18T22:20:45.495Z,39.94
2023-03-18T22:23:23.050Z,39.84
2023-03-18T22:25:57.227Z,39.87
2023-03-18T22:28:31.592Z,40.15
2023-03-18T22:31:04.083Z,40.57
2023-03-18T22:33:37.432Z,40.84
2023-03-18T22:36:13.450Z,41.00
2023-03-18T22:38:48.693Z,41.10
2023-03-18T22:41:23.941Z,41.11
2023-03-18T22:43:57.948Z,41.27
2023-03-18T22:46:33.798Z,41.16
2023-03-18T22:49:07.757Z,41.12
2023-03-18T22:51:42.386Z,41.65
2023-03-18T22:54:17.783Z,41.47
2023-03-18T22:56:50.694Z,41.34
2023-03-18T22:59:24.426Z,41.66
2023-03-18T23:01:56.970Z,41.55
2023-03-18T23:04:30.468Z,41.66
2023-03-18T23:07:05.539Z,41.91
2023-03-18T23:09:54.087Z,41.77
2023-03-18T23:12:15.502Z,41.69
2023-03-18T23:14:47.766Z,41.83
2023-03-18T23:17:23.771Z,42.23
2023-03-18T23:19:57.449Z,42.36
2023-03-18T23:22:35.367Z,42.51
2023-03-18T23:25:08.016Z,42.38
2023-03-18T23:27:39.861Z,42.51
2023-03-18T23:30:14.291Z,42.46
2023-03-18T23:32:47.000Z,42.69
2023-03-18T23:35:18.976Z,42.61
2023-03-18T23:37:50.773Z,42.97
2023-03-18T23:40:22.881Z,42.80
2023-03-18T23:42:55.263Z,42.86
2023-03-18T23:45:28.146Z,43.07
2023-03-18T23:48:00.230Z,42.85
2023-03-18T23:50:32.717Z,43.07
2023-03-18T23:53:04.751Z,42.96
2023-03-18T23:55:36.845Z,43.08
2023-03-18T23:58:08.760Z,43.13
